Altamira do Parana, Brazil
Current Conditions -  °F | °C
As of 8:00 AM on Friday 19 Dec 2014 (Local Time) from SBCA Reporting Station
Broken Clouds Broken Clouds  
Wind Chill: 73°   Ceiling: 7000
Heat Index: 73°   Visibility: 6mi
Dew Point: 59°   Wind: 12mph
Humidity: 61%   Direction: 50°NE
Pressure: 29.88"   Gusts: NA
Location:  24.8°S, 52.71°W
Report Text: SBCA 191000Z 05010KT 9999 FEW030 BKN070 23/15 Q1012
Loading
Personal Weather Stations






























Interactive Weather Map New forecast layout! Learn more

10-Day Weather Forecast

Advertisements
Track Severe Weather on mobile